createdAt,value
2023-03-29T00:00:14.350Z,55.00
2023-03-29T00:02:48.594Z,55.10
2023-03-29T00:05:19.430Z,55.00
2023-03-29T00:07:48.422Z,55.00
2023-03-29T00:10:17.159Z,55.00
2023-03-29T00:12:45.698Z,55.10
2023-03-29T00:15:14.753Z,55.10
2023-03-29T00:17:43.218Z,55.10
2023-03-29T00:20:14.245Z,55.10
2023-03-29T00:22:43.824Z,55.10
2023-03-29T00:25:13.623Z,55.10
2023-03-29T00:27:42.180Z,55.10
2023-03-29T00:30:11.886Z,55.00
2023-03-29T00:32:40.898Z,55.10
2023-03-29T00:35:10.244Z,55.10
2023-03-29T00:37:41.292Z,55.20
2023-03-29T00:40:12.989Z,55.20
2023-03-29T00:42:46.431Z,55.20
2023-03-29T00:45:25.256Z,55.40
2023-03-29T00:47:57.943Z,55.50
2023-03-29T00:50:31.923Z,55.30
2023-03-29T00:53:06.381Z,55.50
2023-03-29T00:55:39.526Z,55.40
2023-03-29T00:58:13.000Z,55.40
2023-03-29T01:00:48.733Z,55.40
2023-03-29T01:03:24.789Z,55.50
2023-03-29T01:05:58.890Z,55.40
2023-03-29T01:08:33.792Z,55.50
2023-03-29T01:11:07.838Z,55.50
2023-03-29T01:13:42.520Z,55.50
2023-03-29T01:16:14.414Z,55.50
2023-03-29T01:18:43.680Z,55.50
2023-03-29T01:21:21.838Z,55.50
2023-03-29T01:24:22.219Z,55.60
2023-03-29T01:27:00.611Z,55.70
2023-03-29T01:29:35.885Z,55.50
2023-03-29T01:32:09.854Z,55.60
2023-03-29T01:34:44.923Z,55.50
2023-03-29T01:37:21.922Z,55.50
2023-03-29T01:39:50.314Z,55.50
2023-03-29T01:42:34.531Z,55.50
2023-03-29T01:45:15.121Z,55.50
2023-03-29T01:47:50.400Z,56.40
2023-03-29T01:50:25.661Z,56.30
2023-03-29T01:52:59.145Z,56.40
2023-03-29T01:55:33.336Z,56.40
2023-03-29T01:58:04.378Z,55.70
2023-03-29T02:00:37.158Z,56.50
2023-03-29T02:03:09.798Z,56.60
2023-03-29T02:05:39.787Z,55.80
2023-03-29T02:08:10.952Z,56.50
2023-03-29T02:10:39.699Z,56.50
2023-03-29T02:13:08.484Z,55.80
2023-03-29T02:15:39.810Z,56.50
2023-03-29T02:18:08.741Z,56.60
2023-03-29T02:20:40.651Z,55.80
2023-03-29T02:23:15.684Z,55.80
2023-03-29T02:25:46.961Z,55.90
2023-03-29T02:28:15.963Z,55.90
2023-03-29T02:30:54.607Z,55.80
2023-03-29T02:33:28.016Z,56.00
2023-03-29T02:36:01.978Z,55.90
2023-03-29T02:38:31.760Z,55.90
2023-03-29T02:41:02.159Z,56.00
2023-03-29T02:43:32.383Z,56.00
2023-03-29T02:46:03.172Z,56.00
2023-03-29T02:48:33.525Z,56.00
2023-03-29T02:51:05.810Z,55.90
2023-03-29T02:53:41.522Z,56.00
2023-03-29T02:56:10.675Z,56.00
2023-03-29T02:58:39.154Z,56.10
2023-03-29T03:01:11.319Z,56.10
2023-03-29T03:03:40.177Z,56.10
2023-03-29T03:06:09.653Z,56.10
2023-03-29T03:08:38.114Z,56.10
2023-03-29T03:11:08.111Z,56.10
2023-03-29T03:13:36.509Z,56.10
2023-03-29T03:16:05.541Z,56.10
2023-03-29T03:18:35.327Z,56.10
2023-03-29T03:21:04.625Z,56.10
2023-03-29T03:23:33.631Z,56.10
2023-03-29T03:26:02.962Z,56.10
2023-03-29T03:28:33.431Z,56.10
2023-03-29T03:31:05.039Z,56.10
2023-03-29T03:34:08.453Z,56.10
2023-03-29T03:36:47.814Z,56.70
2023-03-29T03:39:16.304Z,56.10
2023-03-29T03:41:45.512Z,56.10
2023-03-29T03:44:14.492Z,56.10
2023-03-29T03:46:44.486Z,56.20
2023-03-29T03:49:14.812Z,56.20
2023-03-29T03:51:45.767Z,56.80
2023-03-29T03:54:15.627Z,56.20
2023-03-29T03:57:03.795Z,56.30
2023-03-29T03:59:42.469Z,56.30
2023-03-29T04:02:14.923Z,56.30
2023-03-29T04:04:46.328Z,56.30
2023-03-29T04:07:20.078Z,56.30
2023-03-29T04:10:18.158Z,56.20
2023-03-29T04:12:53.874Z,56.20
2023-03-29T04:15:22.694Z,56.30
2023-03-29T04:18:00.731Z,56.40
2023-03-29T04:20:37.190Z,56.40
2023-03-29T04:23:06.313Z,56.40
2023-03-29T04:25:36.479Z,56.40
2023-03-29T04:28:37.276Z,56.50
2023-03-29T04:31:14.936Z,56.50
2023-03-29T04:34:03.696Z,56.80
2023-03-29T04:36:33.699Z,56.80
2023-03-29T04:39:02.074Z,56.90
2023-03-29T04:41:32.639Z,56.80
2023-03-29T04:44:06.818Z,56.80
2023-03-29T04:46:38.047Z,56.80
2023-03-29T04:49:12.669Z,56.90
2023-03-29T04:51:45.864Z,57.00
2023-03-29T04:54:14.472Z,57.10
2023-03-29T04:57:08.519Z,57.10
2023-03-29T05:00:00.027Z,57.10
2023-03-29T05:02:47.543Z,57.10
2023-03-29T05:05:16.934Z,57.20
2023-03-29T05:07:59.624Z,57.20
2023-03-29T05:10:35.942Z,57.30
2023-03-29T05:13:04.466Z,57.20
2023-03-29T05:15:33.819Z,57.30
2023-03-29T05:18:02.356Z,57.30
2023-03-29T05:20:31.411Z,57.30
2023-03-29T05:23:02.074Z,57.30
2023-03-29T05:25:56.439Z,57.50
2023-03-29T05:28:24.914Z,57.30
2023-03-29T05:31:02.646Z,57.50
2023-03-29T05:33:32.443Z,57.60
2023-03-29T05:36:02.636Z,57.50
2023-03-29T05:38:33.949Z,57.60
2023-03-29T05:41:04.199Z,57.70
2023-03-29T05:44:02.482Z,57.80
2023-03-29T05:46:31.996Z,57.70
2023-03-29T05:49:04.503Z,57.90
2023-03-29T05:51:56.880Z,58.00
2023-03-29T05:54:27.595Z,58.10
2023-03-29T05:56:56.754Z,58.40
2023-03-29T05:59:28.292Z,58.40
2023-03-29T06:01:57.100Z,58.40
2023-03-29T06:04:26.406Z,58.60
2023-03-29T06:07:24.554Z,58.70
2023-03-29T06:10:15.681Z,58.70
2023-03-29T06:12:49.751Z,58.80
2023-03-29T06:15:20.011Z,58.90
2023-03-29T06:17:51.598Z,59.00
2023-03-29T06:20:21.482Z,59.10
2023-03-29T06:22:55.240Z,59.20
2023-03-29T06:25:26.087Z,59.20
2023-03-29T06:27:54.559Z,59.20
2023-03-29T06:30:23.365Z,59.30
2023-03-29T06:32:55.621Z,59.30
2023-03-29T06:35:44.207Z,59.40
2023-03-29T06:38:16.525Z,59.30
2023-03-29T06:41:12.173Z,59.30
2023-03-29T06:44:04.100Z,60.00
2023-03-29T06:46:37.888Z,59.30
2023-03-29T06:49:11.905Z,59.40
2023-03-29T06:52:03.799Z,59.50
2023-03-29T06:54:33.840Z,59.60
2023-03-29T06:57:07.815Z,59.60
2023-03-29T06:59:36.326Z,59.60
2023-03-29T07:02:31.826Z,59.60
2023-03-29T07:05:12.022Z,59.70
2023-03-29T07:07:57.044Z,59.70
2023-03-29T07:10:48.911Z,59.80
2023-03-29T07:13:37.478Z,59.80
2023-03-29T07:16:12.546Z,59.80
2023-03-29T07:18:54.380Z,59.80
2023-03-29T07:21:43.220Z,59.80
2023-03-29T07:24:12.925Z,59.70
2023-03-29T07:26:52.212Z,59.70
2023-03-29T07:29:31.044Z,59.60
2023-03-29T07:31:59.766Z,59.60
2023-03-29T07:34:54.445Z,59.60
2023-03-29T07:37:34.152Z,59.60
2023-03-29T07:40:08.891Z,59.70
2023-03-29T07:43:08.951Z,59.70
2023-03-29T07:45:42.354Z,59.80
2023-03-29T07:48:13.117Z,59.90
2023-03-29T07:50:58.260Z,59.90
2023-03-29T07:53:32.284Z,59.90
2023-03-29T07:56:04.664Z,60.00
2023-03-29T07:58:46.535Z,59.90
2023-03-29T08:01:19.938Z,59.80
2023-03-29T08:04:07.000Z,59.90
2023-03-29T08:06:55.393Z,59.80
2023-03-29T08:09:29.588Z,59.80
2023-03-29T08:11:59.057Z,59.80
2023-03-29T08:14:34.866Z,59.80
2023-03-29T08:17:09.501Z,59.80
2023-03-29T08:19:50.997Z,59.90
2023-03-29T08:22:22.479Z,59.90
2023-03-29T08:25:11.648Z,60.00
2023-03-29T08:27:45.349Z,60.00
2023-03-29T08:30:17.672Z,60.00
2023-03-29T08:32:50.969Z,60.00
2023-03-29T08:35:21.677Z,60.00
2023-03-29T08:38:03.303Z,60.10
2023-03-29T08:40:32.095Z,60.00
2023-03-29T08:43:41.435Z,60.00
2023-03-29T08:46:21.263Z,60.10
2023-03-29T08:48:58.356Z,60.00
2023-03-29T08:51:32.455Z,60.10
2023-03-29T08:54:05.635Z,60.10
2023-03-29T08:56:48.689Z,60.10
2023-03-29T08:59:32.124Z,60.00
2023-03-29T09:02:07.135Z,60.00
2023-03-29T09:04:38.128Z,60.00
2023-03-29T09:07:21.188Z,59.90
2023-03-29T09:09:49.592Z,59.90
2023-03-29T09:12:49.650Z,59.90
2023-03-29T09:15:23.686Z,60.00
2023-03-29T09:18:13.070Z,60.00
2023-03-29T09:20:53.906Z,60.10
2023-03-29T09:23:52.827Z,60.30
2023-03-29T09:26:50.403Z,60.60
2023-03-29T09:29:57.618Z,60.50
2023-03-29T09:32:53.667Z,60.60
2023-03-29T09:35:33.563Z,60.70
2023-03-29T09:38:06.330Z,60.70
2023-03-29T09:40:42.748Z,60.80
2023-03-29T09:43:24.142Z,60.80
2023-03-29T09:45:57.387Z,60.80
2023-03-29T09:48:28.284Z,60.90
2023-03-29T09:50:59.110Z,60.90
2023-03-29T09:53:29.376Z,61.00
2023-03-29T09:56:24.185Z,61.00
2023-03-29T09:58:59.011Z,61.00
2023-03-29T10:01:38.754Z,61.10
2023-03-29T10:04:11.439Z,61.30
2023-03-29T10:06:47.470Z,61.20
2023-03-29T10:09:22.570Z,61.30
2023-03-29T10:11:56.736Z,61.60
2023-03-29T10:14:35.202Z,61.50
2023-03-29T10:17:15.543Z,61.60
2023-03-29T10:19:51.083Z,61.40
2023-03-29T10:22:23.917Z,62.30
2023-03-29T10:24:56.150Z,61.40
2023-03-29T10:27:28.959Z,61.50
2023-03-29T10:30:00.307Z,61.40
2023-03-29T10:32:34.837Z,61.30
2023-03-29T10:35:10.992Z,61.50
2023-03-29T10:37:42.522Z,61.60
2023-03-29T10:40:23.476Z,61.50
2023-03-29T10:42:53.841Z,61.60
2023-03-29T10:45:27.581Z,61.50
2023-03-29T10:47:57.667Z,61.40
2023-03-29T10:50:28.187Z,61.40
2023-03-29T10:52:56.873Z,61.40
2023-03-29T10:55:35.016Z,61.60
2023-03-29T10:58:18.524Z,61.90
2023-03-29T11:00:53.678Z,62.40
2023-03-29T11:04:04.179Z,62.10
2023-03-29T11:06:41.167Z,62.30
2023-03-29T11:09:21.587Z,62.00
2023-03-29T11:12:15.777Z,61.90
2023-03-29T11:15:00.283Z,61.70
2023-03-29T11:17:44.117Z,61.30
2023-03-29T11:20:21.667Z,61.30
2023-03-29T11:22:58.432Z,61.10
2023-03-29T11:25:39.158Z,61.10
2023-03-29T11:28:16.890Z,61.00
2023-03-29T11:30:53.840Z,61.00
2023-03-29T11:33:37.438Z,61.20
2023-03-29T11:36:13.974Z,61.20
2023-03-29T11:38:53.307Z,61.20
2023-03-29T11:41:26.966Z,61.10
2023-03-29T11:44:02.537Z,61.20
2023-03-29T11:46:35.219Z,61.20
2023-03-29T11:49:07.418Z,61.30
2023-03-29T11:51:39.743Z,61.20
2023-03-29T11:54:19.367Z,61.20
2023-03-29T11:56:53.647Z,61.30
2023-03-29T11:59:33.439Z,61.20
2023-03-29T12:02:12.277Z,61.10
2023-03-29T12:04:47.583Z,61.10
2023-03-29T12:07:21.508Z,60.90
2023-03-29T12:09:54.958Z,60.90
2023-03-29T12:12:30.340Z,60.80
2023-03-29T12:15:08.062Z,60.80
2023-03-29T12:17:45.159Z,60.80
2023-03-29T12:20:20.881Z,60.80
2023-03-29T12:22:51.992Z,60.80
2023-03-29T12:25:26.408Z,60.80
2023-03-29T12:28:11.017Z,60.90
2023-03-29T12:30:59.471Z,60.90
2023-03-29T12:34:16.993Z,60.90
2023-03-29T12:37:16.484Z,61.00
2023-03-29T12:39:48.795Z,61.00
2023-03-29T12:42:35.914Z,61.00
2023-03-29T12:45:33.317Z,61.00
2023-03-29T12:48:03.762Z,60.90
2023-03-29T12:50:37.080Z,60.70
2023-03-29T12:53:20.073Z,60.70
2023-03-29T12:55:55.349Z,61.50
2023-03-29T12:58:42.696Z,60.60
2023-03-29T13:01:24.601Z,60.40
2023-03-29T13:04:13.728Z,60.40
2023-03-29T13:07:06.292Z,60.20
2023-03-29T13:09:51.176Z,60.20
2023-03-29T13:12:27.866Z,60.20
2023-03-29T13:15:00.264Z,60.30
2023-03-29T13:17:38.397Z,60.30
2023-03-29T13:20:45.731Z,60.40
2023-03-29T13:23:33.705Z,60.40
2023-03-29T13:26:46.371Z,60.50
2023-03-29T13:29:50.988Z,60.60
2023-03-29T13:32:46.243Z,60.70
2023-03-29T13:35:24.054Z,60.80
2023-03-29T13:38:06.905Z,61.00
2023-03-29T13:40:48.240Z,60.80
2023-03-29T13:43:32.185Z,61.10
2023-03-29T13:46:24.176Z,61.10
2023-03-29T13:49:19.752Z,60.90
2023-03-29T13:52:07.081Z,60.80
2023-03-29T13:54:44.130Z,60.80
2023-03-29T13:57:18.168Z,60.70
2023-03-29T13:59:54.999Z,60.60
2023-03-29T14:02:33.725Z,60.50
2023-03-29T14:05:04.285Z,60.50
2023-03-29T14:07:35.155Z,60.40
2023-03-29T14:10:07.946Z,60.40
2023-03-29T14:12:41.712Z,60.40
2023-03-29T14:15:23.880Z,60.40
2023-03-29T14:18:00.302Z,60.40
2023-03-29T14:20:30.840Z,60.40
2023-03-29T14:22:59.337Z,60.50
2023-03-29T14:25:30.711Z,60.40
2023-03-29T14:27:59.089Z,60.50
2023-03-29T14:30:30.606Z,60.40
2023-03-29T14:32:59.080Z,60.50
2023-03-29T14:35:33.759Z,60.50
2023-03-29T14:38:03.720Z,60.50
2023-03-29T14:40:34.810Z,60.50
2023-03-29T14:43:08.087Z,60.40
2023-03-29T14:45:37.361Z,60.50
2023-03-29T14:48:06.629Z,60.40
2023-03-29T14:50:36.411Z,60.30
2023-03-29T14:53:06.787Z,60.10
2023-03-29T14:55:38.390Z,60.10
2023-03-29T14:58:22.720Z,60.10
2023-03-29T15:00:52.837Z,60.10
2023-03-29T15:03:26.494Z,60.10
2023-03-29T15:05:58.845Z,60.00
2023-03-29T15:08:34.172Z,60.00
2023-03-29T15:11:05.801Z,60.00
2023-03-29T15:13:34.487Z,60.00
2023-03-29T15:16:05.832Z,60.00
2023-03-29T15:18:39.955Z,60.00
2023-03-29T15:21:10.678Z,60.10
2023-03-29T15:23:42.593Z,60.10
2023-03-29T15:26:16.041Z,60.10
2023-03-29T15:28:50.415Z,60.20
2023-03-29T15:31:23.443Z,60.10
2023-03-29T15:34:03.992Z,60.10
2023-03-29T15:36:33.517Z,60.00
2023-03-29T15:39:02.368Z,60.00
2023-03-29T15:41:33.237Z,60.00
2023-03-29T15:44:02.172Z,59.90
2023-03-29T15:46:32.957Z,60.00
2023-03-29T15:49:01.549Z,60.00
2023-03-29T15:51:29.870Z,59.90
2023-03-29T15:53:58.350Z,59.90
2023-03-29T15:56:27.149Z,59.90
2023-03-29T15:58:56.968Z,59.90
2023-03-29T16:01:34.772Z,60.00
2023-03-29T16:04:04.489Z,60.00
2023-03-29T16:06:34.384Z,59.90
2023-03-29T16:09:03.911Z,59.90
2023-03-29T16:11:32.419Z,60.00
2023-03-29T16:14:02.524Z,60.00
2023-03-29T16:16:31.376Z,60.00
2023-03-29T16:18:59.850Z,60.00
2023-03-29T16:21:29.270Z,60.00
2023-03-29T16:23:57.980Z,60.00
2023-03-29T16:26:27.399Z,60.00
2023-03-29T16:28:56.048Z,60.00
2023-03-29T16:31:27.147Z,60.00
2023-03-29T16:33:55.735Z,60.00
2023-03-29T16:36:24.345Z,60.00
2023-03-29T16:38:53.732Z,60.00
2023-03-29T16:41:22.397Z,60.10
2023-03-29T16:43:51.472Z,60.10
2023-03-29T16:46:20.935Z,60.00
2023-03-29T16:48:51.537Z,60.00
2023-03-29T16:51:20.022Z,60.00
2023-03-29T16:53:49.154Z,60.10
2023-03-29T16:56:17.654Z,60.10
2023-03-29T16:58:47.830Z,60.00
2023-03-29T17:01:19.231Z,60.00
2023-03-29T17:03:47.592Z,60.10
2023-03-29T17:06:17.668Z,60.10
2023-03-29T17:08:46.167Z,60.10
2023-03-29T17:11:15.563Z,60.10
2023-03-29T17:13:44.548Z,60.20
2023-03-29T17:16:13.035Z,60.30
2023-03-29T17:18:42.004Z,60.30
2023-03-29T17:21:10.463Z,60.40
2023-03-29T17:23:40.423Z,60.50
2023-03-29T17:26:09.103Z,60.60
2023-03-29T17:28:37.555Z,60.60
2023-03-29T17:31:08.192Z,60.60
2023-03-29T17:33:37.877Z,60.70
2023-03-29T17:36:08.265Z,60.70
2023-03-29T17:38:37.981Z,60.70
2023-03-29T17:41:08.319Z,60.60
2023-03-29T17:43:36.824Z,60.70
2023-03-29T17:46:06.037Z,60.50
2023-03-29T17:48:34.684Z,60.60
2023-03-29T17:51:08.986Z,60.60
2023-03-29T17:53:37.445Z,60.60
2023-03-29T17:56:09.163Z,60.60
2023-03-29T17:58:37.955Z,60.60
2023-03-29T18:01:09.425Z,60.50
2023-03-29T18:03:37.949Z,60.60
2023-03-29T18:06:07.406Z,60.50
2023-03-29T18:08:36.191Z,60.60
2023-03-29T18:11:12.848Z,60.60
2023-03-29T18:13:41.628Z,60.70
2023-03-29T18:16:11.028Z,60.60
2023-03-29T18:18:41.521Z,60.60
2023-03-29T18:21:10.908Z,60.60
2023-03-29T18:23:42.190Z,60.60
2023-03-29T18:26:12.340Z,60.60
2023-03-29T18:28:41.488Z,60.60
2023-03-29T18:31:09.939Z,60.60
2023-03-29T18:33:38.301Z,60.50
2023-03-29T18:36:12.689Z,60.60
2023-03-29T18:38:43.289Z,60.60
2023-03-29T18:41:15.924Z,60.50
2023-03-29T18:43:44.348Z,60.60
2023-03-29T18:46:13.126Z,60.50
2023-03-29T18:48:41.975Z,60.60
2023-03-29T18:51:12.598Z,60.50
2023-03-29T18:53:42.812Z,61.40
2023-03-29T18:56:12.733Z,60.40
2023-03-29T18:58:43.095Z,60.50
2023-03-29T19:01:12.849Z,60.60
2023-03-29T19:03:42.273Z,60.50
2023-03-29T19:06:11.879Z,60.50
2023-03-29T19:08:41.358Z,60.60
2023-03-29T19:11:14.262Z,60.50
2023-03-29T19:13:43.426Z,60.60
2023-03-29T19:16:12.195Z,60.60
2023-03-29T19:18:40.843Z,60.60
2023-03-29T19:21:09.697Z,60.50
2023-03-29T19:23:38.346Z,60.60
2023-03-29T19:26:08.456Z,60.70
2023-03-29T19:28:38.385Z,60.70
2023-03-29T19:31:07.181Z,60.80
2023-03-29T19:33:35.914Z,60.70
2023-03-29T19:36:04.588Z,60.80
2023-03-29T19:38:33.038Z,60.90
2023-03-29T19:41:01.749Z,60.90
2023-03-29T19:43:31.729Z,61.00
2023-03-29T19:46:07.992Z,61.00
2023-03-29T19:48:36.941Z,61.20
2023-03-29T19:51:06.017Z,61.00
2023-03-29T19:53:37.176Z,61.10
2023-03-29T19:56:10.877Z,61.20
2023-03-29T19:58:39.449Z,61.30
2023-03-29T20:01:10.307Z,61.40
2023-03-29T20:03:40.442Z,61.40
2023-03-29T20:06:11.754Z,61.50
2023-03-29T20:08:40.378Z,61.50
2023-03-29T20:11:10.220Z,61.50
2023-03-29T20:13:39.887Z,61.50
2023-03-29T20:16:12.697Z,61.50
2023-03-29T20:18:41.551Z,61.60
2023-03-29T20:21:10.859Z,61.60
2023-03-29T20:23:40.062Z,61.50
2023-03-29T20:26:09.306Z,61.70
2023-03-29T20:28:39.619Z,61.60
2023-03-29T20:31:11.574Z,61.80
2023-03-29T20:33:42.309Z,62.00
2023-03-29T20:36:11.336Z,61.80
2023-03-29T20:38:40.304Z,61.80
2023-03-29T20:41:10.881Z,62.00
2023-03-29T20:43:40.960Z,62.00
2023-03-29T20:46:18.371Z,62.10
2023-03-29T20:48:53.139Z,62.20
2023-03-29T20:51:30.281Z,62.20
2023-03-29T20:54:02.812Z,62.20
2023-03-29T20:56:32.294Z,62.20
2023-03-29T20:59:00.823Z,62.30
2023-03-29T21:01:31.212Z,62.30
2023-03-29T21:04:00.494Z,62.40
2023-03-29T21:06:30.213Z,62.30
2023-03-29T21:08:59.116Z,62.30
2023-03-29T21:11:29.366Z,62.40
2023-03-29T21:13:58.094Z,62.40
2023-03-29T21:16:29.101Z,62.30
2023-03-29T21:18:59.130Z,62.40
2023-03-29T21:21:29.896Z,62.40
2023-03-29T21:23:58.206Z,62.40
2023-03-29T21:26:27.205Z,62.40
2023-03-29T21:28:55.800Z,62.40
2023-03-29T21:31:24.222Z,62.50
2023-03-29T21:33:53.097Z,62.50
2023-03-29T21:36:24.096Z,62.50
2023-03-29T21:38:52.934Z,62.70
2023-03-29T21:41:21.962Z,62.50
2023-03-29T21:43:50.396Z,62.60
2023-03-29T21:46:18.827Z,62.70
2023-03-29T21:48:47.288Z,62.80
2023-03-29T21:51:15.941Z,62.70
2023-03-29T21:53:45.778Z,62.80
2023-03-29T21:56:14.265Z,62.80
2023-03-29T21:58:43.071Z,62.80
2023-03-29T22:01:11.564Z,62.80
2023-03-29T22:03:40.103Z,62.80
2023-03-29T22:06:09.863Z,62.80
2023-03-29T22:08:39.794Z,62.80
2023-03-29T22:11:14.561Z,62.80
2023-03-29T22:13:44.740Z,62.80
2023-03-29T22:16:17.047Z,62.80
2023-03-29T22:18:49.136Z,62.70
2023-03-29T22:21:19.960Z,62.70
2023-03-29T22:23:50.873Z,62.70
2023-03-29T22:26:24.955Z,62.70
2023-03-29T22:28:53.291Z,62.70
2023-03-29T22:31:23.850Z,62.50
2023-03-29T22:33:52.534Z,62.60
2023-03-29T22:36:24.082Z,62.50
2023-03-29T22:38:53.489Z,62.40
2023-03-29T22:41:27.944Z,62.40
2023-03-29T22:43:58.876Z,62.40
2023-03-29T22:46:27.573Z,62.40
2023-03-29T22:48:56.385Z,62.40
2023-03-29T22:51:24.891Z,62.30
2023-03-29T22:53:53.340Z,62.30
2023-03-29T22:56:23.226Z,62.30
2023-03-29T22:58:52.135Z,62.20
2023-03-29T23:01:20.972Z,62.20
2023-03-29T23:03:49.677Z,62.20
2023-03-29T23:06:18.396Z,62.20
2023-03-29T23:08:46.808Z,62.10
2023-03-29T23:11:15.677Z,62.10
2023-03-29T23:13:48.578Z,62.10
2023-03-29T23:16:20.676Z,62.00
2023-03-29T23:18:49.462Z,62.00
2023-03-29T23:21:18.242Z,62.00
2023-03-29T23:23:46.691Z,61.80
2023-03-29T23:26:15.187Z,61.70
2023-03-29T23:28:45.033Z,61.70
2023-03-29T23:31:18.373Z,61.70
2023-03-29T23:33:46.953Z,61.70
2023-03-29T23:36:17.723Z,61.60
2023-03-29T23:38:47.910Z,61.50
2023-03-29T23:41:17.731Z,61.50
2023-03-29T23:43:50.488Z,61.50
2023-03-29T23:46:20.421Z,61.40
2023-03-29T23:48:50.788Z,61.40
2023-03-29T23:51:23.604Z,61.30
2023-03-29T23:53:52.372Z,61.30
2023-03-29T23:56:21.508Z,61.30
2023-03-29T23:58:52.246Z,61.20
